sensor_id;sensor_type;location;lat;lon;timestamp;P1;durP1;ratioP1;P2;durP2;ratioP2
43986;SDS011;29650;47.378;8.300;2023-02-15T00:01:20;24.23;;;10.23;;
43986;SDS011;29650;47.378;8.300;2023-02-15T00:03:50;20.52;;;10.85;;
43986;SDS011;29650;47.378;8.300;2023-02-15T00:06:17;21.02;;;10.20;;
43986;SDS011;29650;47.378;8.300;2023-02-15T00:08:45;22.70;;;11.13;;
43986;SDS011;29650;47.378;8.300;2023-02-15T00:11:23;84.28;;;15.05;;
43986;SDS011;29650;47.378;8.300;2023-02-15T00:14:16;26.77;;;10.48;;
43986;SDS011;29650;47.378;8.300;2023-02-15T00:16:51;42.08;;;11.80;;
43986;SDS011;29650;47.378;8.300;2023-02-15T00:19:25;67.20;;;12.10;;
43986;SDS011;29650;47.378;8.300;2023-02-15T00:22:27;29.33;;;11.52;;
43986;SDS011;29650;47.378;8.300;2023-02-15T00:24:54;28.10;;;11.10;;
43986;SDS011;29650;47.378;8.300;2023-02-15T00:27:29;86.13;;;13.80;;
43986;SDS011;29650;47.378;8.300;2023-02-15T00:29:56;88.32;;;13.75;;
43986;SDS011;29650;47.378;8.300;2023-02-15T00:32:24;19.58;;;9.15;;
43986;SDS011;29650;47.378;8.300;2023-02-15T00:34:51;25.67;;;10.80;;
43986;SDS011;29650;47.378;8.300;2023-02-15T00:37:18;22.30;;;9.60;;
43986;SDS011;29650;47.378;8.300;2023-02-15T00:45:36;16.88;;;8.82;;
43986;SDS011;29650;47.378;8.300;2023-02-15T00:48:13;38.13;;;10.90;;
43986;SDS011;29650;47.378;8.300;2023-02-15T00:50:51;65.10;;;12.98;;
43986;SDS011;29650;47.378;8.300;2023-02-15T00:53:42;32.28;;;12.23;;
43986;SDS011;29650;47.378;8.300;2023-02-15T00:56:09;28.05;;;9.55;;
43986;SDS011;29650;47.378;8.300;2023-02-15T00:58:36;40.15;;;11.13;;
43986;SDS011;29650;47.378;8.300;2023-02-15T01:04:02;23.95;;;10.18;;
43986;SDS011;29650;47.378;8.300;2023-02-15T01:06:29;22.30;;;10.52;;
43986;SDS011;29650;47.378;8.300;2023-02-15T01:08:56;28.92;;;10.85;;
43986;SDS011;29650;47.378;8.300;2023-02-15T01:11:23;21.67;;;9.77;;
43986;SDS011;29650;47.378;8.300;2023-02-15T01:13:51;45.55;;;11.20;;
43986;SDS011;29650;47.378;8.300;2023-02-15T01:16:22;24.33;;;9.90;;
43986;SDS011;29650;47.378;8.300;2023-02-15T01:18:50;20.88;;;11.30;;
43986;SDS011;29650;47.378;8.300;2023-02-15T01:21:18;35.05;;;9.88;;
43986;SDS011;29650;47.378;8.300;2023-02-15T01:23:46;77.40;;;11.02;;
43986;SDS011;29650;47.378;8.300;2023-02-15T01:26:13;55.10;;;11.05;;
43986;SDS011;29650;47.378;8.300;2023-02-15T01:28:41;16.27;;;9.38;;
43986;SDS011;29650;47.378;8.300;2023-02-15T01:31:08;20.02;;;9.75;;
43986;SDS011;29650;47.378;8.300;2023-02-15T01:33:40;31.85;;;11.60;;
43986;SDS011;29650;47.378;8.300;2023-02-15T01:36:07;19.63;;;9.25;;
43986;SDS011;29650;47.378;8.300;2023-02-15T01:38:35;17.23;;;9.43;;
43986;SDS011;29650;47.378;8.300;2023-02-15T01:41:02;18.52;;;8.38;;
43986;SDS011;29650;47.378;8.300;2023-02-15T01:43:49;16.13;;;10.07;;
43986;SDS011;29650;47.378;8.300;2023-02-15T01:46:19;15.98;;;9.02;;
43986;SDS011;29650;47.378;8.300;2023-02-15T01:48:59;20.52;;;9.15;;
43986;SDS011;29650;47.378;8.300;2023-02-15T01:51:29;39.03;;;10.05;;
43986;SDS011;29650;47.378;8.300;2023-02-15T01:53:59;36.97;;;9.40;;
43986;SDS011;29650;47.378;8.300;2023-02-15T01:56:42;14.15;;;7.00;;
43986;SDS011;29650;47.378;8.300;2023-02-15T01:59:11;14.05;;;7.40;;
43986;SDS011;29650;47.378;8.300;2023-02-15T02:01:43;18.95;;;8.27;;
43986;SDS011;29650;47.378;8.300;2023-02-15T02:04:17;29.92;;;9.18;;
43986;SDS011;29650;47.378;8.300;2023-02-15T02:06:49;14.43;;;8.60;;
43986;SDS011;29650;47.378;8.300;2023-02-15T02:09:17;18.40;;;9.67;;
43986;SDS011;29650;47.378;8.300;2023-02-15T02:12:06;16.98;;;8.95;;
43986;SDS011;29650;47.378;8.300;2023-02-15T02:14:34;17.73;;;9.05;;
43986;SDS011;29650;47.378;8.300;2023-02-15T02:19:44;19.98;;;8.45;;
43986;SDS011;29650;47.378;8.300;2023-02-15T02:25:40;40.47;;;9.90;;
43986;SDS011;29650;47.378;8.300;2023-02-15T02:34:33;31.25;;;8.95;;
43986;SDS011;29650;47.378;8.300;2023-02-15T02:37:08;43.55;;;10.40;;
43986;SDS011;29650;47.378;8.300;2023-02-15T02:39:46;40.40;;;10.48;;
43986;SDS011;29650;47.378;8.300;2023-02-15T02:42:38;12.52;;;7.53;;
43986;SDS011;29650;47.378;8.300;2023-02-15T02:45:08;25.98;;;9.85;;
43986;SDS011;29650;47.378;8.300;2023-02-15T02:47:40;18.35;;;9.45;;
43986;SDS011;29650;47.378;8.300;2023-02-15T02:50:12;14.65;;;8.45;;
43986;SDS011;29650;47.378;8.300;2023-02-15T02:52:42;17.48;;;9.73;;
43986;SDS011;29650;47.378;8.300;2023-02-15T02:55:11;18.33;;;8.45;;
43986;SDS011;29650;47.378;8.300;2023-02-15T02:58:00;15.93;;;8.80;;
43986;SDS011;29650;47.378;8.300;2023-02-15T03:00:36;20.23;;;8.52;;
43986;SDS011;29650;47.378;8.300;2023-02-15T03:03:32;19.38;;;9.68;;
43986;SDS011;29650;47.378;8.300;2023-02-15T03:06:05;27.52;;;9.82;;
43986;SDS011;29650;47.378;8.300;2023-02-15T03:08:37;23.65;;;8.48;;
43986;SDS011;29650;47.378;8.300;2023-02-15T03:11:41;16.60;;;8.18;;
43986;SDS011;29650;47.378;8.300;2023-02-15T03:16:37;14.32;;;7.70;;
43986;SDS011;29650;47.378;8.300;2023-02-15T03:19:14;14.57;;;7.65;;
43986;SDS011;29650;47.378;8.300;2023-02-15T03:21:46;14.15;;;7.25;;
43986;SDS011;29650;47.378;8.300;2023-02-15T03:24:23;15.60;;;8.55;;
43986;SDS011;29650;47.378;8.300;2023-02-15T03:26:53;18.98;;;7.88;;
43986;SDS011;29650;47.378;8.300;2023-02-15T03:29:30;15.93;;;7.03;;
43986;SDS011;29650;47.378;8.300;2023-02-15T03:32:02;12.65;;;6.68;;
43986;SDS011;29650;47.378;8.300;2023-02-15T03:34:31;13.15;;;7.22;;
43986;SDS011;29650;47.378;8.300;2023-02-15T03:37:00;15.35;;;7.90;;
43986;SDS011;29650;47.378;8.300;2023-02-15T03:39:35;22.33;;;7.40;;
43986;SDS011;29650;47.378;8.300;2023-02-15T03:42:14;13.88;;;8.43;;
43986;SDS011;29650;47.378;8.300;2023-02-15T03:44:47;15.05;;;8.00;;
43986;SDS011;29650;47.378;8.300;2023-02-15T03:47:22;14.20;;;7.72;;
43986;SDS011;29650;47.378;8.300;2023-02-15T03:49:53;15.85;;;6.88;;
43986;SDS011;29650;47.378;8.300;2023-02-15T03:52:27;14.25;;;7.30;;
43986;SDS011;29650;47.378;8.300;2023-02-15T03:54:55;14.10;;;7.32;;
43986;SDS011;29650;47.378;8.300;2023-02-15T03:57:22;29.00;;;8.38;;
43986;SDS011;29650;47.378;8.300;2023-02-15T04:00:14;15.75;;;8.70;;
43986;SDS011;29650;47.378;8.300;2023-02-15T04:03:17;17.95;;;5.97;;
43986;SDS011;29650;47.378;8.300;2023-02-15T04:05:54;12.32;;;6.97;;
43986;SDS011;29650;47.378;8.300;2023-02-15T04:08:22;16.95;;;7.43;;
43986;SDS011;29650;47.378;8.300;2023-02-15T04:11:10;13.82;;;7.78;;
43986;SDS011;29650;47.378;8.300;2023-02-15T04:13:52;13.98;;;6.80;;
43986;SDS011;29650;47.378;8.300;2023-02-15T04:16:21;14.27;;;6.90;;
43986;SDS011;29650;47.378;8.300;2023-02-15T04:18:47;14.68;;;6.80;;
43986;SDS011;29650;47.378;8.300;2023-02-15T04:21:32;13.13;;;6.88;;
43986;SDS011;29650;47.378;8.300;2023-02-15T04:24:18;10.82;;;6.68;;
43986;SDS011;29650;47.378;8.300;2023-02-15T04:27:10;15.68;;;7.20;;
43986;SDS011;29650;47.378;8.300;2023-02-15T04:29:37;13.35;;;7.72;;
43986;SDS011;29650;47.378;8.300;2023-02-15T04:32:04;11.30;;;6.65;;
43986;SDS011;29650;47.378;8.300;2023-02-15T04:37:24;25.08;;;9.48;;
43986;SDS011;29650;47.378;8.300;2023-02-15T04:39:53;14.90;;;6.97;;
43986;SDS011;29650;47.378;8.300;2023-02-15T04:42:24;53.03;;;9.07;;
43986;SDS011;29650;47.378;8.300;2023-02-15T04:44:52;13.38;;;7.43;;
43986;SDS011;29650;47.378;8.300;2023-02-15T04:47:20;13.65;;;6.10;;
43986;SDS011;29650;47.378;8.300;2023-02-15T04:49:51;14.48;;;7.60;;
43986;SDS011;29650;47.378;8.300;2023-02-15T04:52:18;17.60;;;8.07;;
43986;SDS011;29650;47.378;8.300;2023-02-15T04:55:16;13.80;;;8.32;;
43986;SDS011;29650;47.378;8.300;2023-02-15T04:57:43;14.55;;;7.00;;
43986;SDS011;29650;47.378;8.300;2023-02-15T05:00:12;12.02;;;6.88;;
43986;SDS011;29650;47.378;8.300;2023-02-15T05:02:39;15.43;;;7.05;;
43986;SDS011;29650;47.378;8.300;2023-02-15T05:05:06;15.13;;;6.65;;
43986;SDS011;29650;47.378;8.300;2023-02-15T05:07:34;12.03;;;6.77;;
43986;SDS011;29650;47.378;8.300;2023-02-15T05:10:01;26.42;;;7.93;;
43986;SDS011;29650;47.378;8.300;2023-02-15T05:12:32;18.17;;;7.30;;
43986;SDS011;29650;47.378;8.300;2023-02-15T05:14:59;14.45;;;8.20;;
43986;SDS011;29650;47.378;8.300;2023-02-15T05:17:26;16.80;;;7.88;;
43986;SDS011;29650;47.378;8.300;2023-02-15T05:19:53;12.73;;;6.82;;
43986;SDS011;29650;47.378;8.300;2023-02-15T05:22:20;17.67;;;8.93;;
43986;SDS011;29650;47.378;8.300;2023-02-15T05:25:07;12.65;;;7.03;;
43986;SDS011;29650;47.378;8.300;2023-02-15T05:27:53;15.35;;;7.97;;
43986;SDS011;29650;47.378;8.300;2023-02-15T05:30:42;16.63;;;8.30;;
43986;SDS011;29650;47.378;8.300;2023-02-15T05:33:17;22.30;;;7.95;;
43986;SDS011;29650;47.378;8.300;2023-02-15T05:35:44;12.68;;;7.53;;
43986;SDS011;29650;47.378;8.300;2023-02-15T05:38:12;23.00;;;7.60;;
43986;SDS011;29650;47.378;8.300;2023-02-15T05:40:51;18.20;;;7.60;;
43986;SDS011;29650;47.378;8.300;2023-02-15T05:43:20;16.02;;;6.65;;
43986;SDS011;29650;47.378;8.300;2023-02-15T05:45:48;23.00;;;9.13;;
43986;SDS011;29650;47.378;8.300;2023-02-15T05:48:16;28.43;;;7.97;;
43986;SDS011;29650;47.378;8.300;2023-02-15T05:50:46;20.10;;;8.38;;
43986;SDS011;29650;47.378;8.300;2023-02-15T05:53:22;16.33;;;7.18;;
43986;SDS011;29650;47.378;8.300;2023-02-15T05:55:49;14.73;;;6.88;;
43986;SDS011;29650;47.378;8.300;2023-02-15T05:58:16;15.30;;;8.38;;
43986;SDS011;29650;47.378;8.300;2023-02-15T06:00:52;29.15;;;9.60;;
43986;SDS011;29650;47.378;8.300;2023-02-15T06:03:20;13.27;;;7.18;;
43986;SDS011;29650;47.378;8.300;2023-02-15T06:05:47;15.40;;;8.68;;
43986;SDS011;29650;47.378;8.300;2023-02-15T06:08:22;15.18;;;7.55;;
43986;SDS011;29650;47.378;8.300;2023-02-15T06:10:53;62.47;;;9.63;;
43986;SDS011;29650;47.378;8.300;2023-02-15T06:13:20;13.05;;;7.07;;
43986;SDS011;29650;47.378;8.300;2023-02-15T06:15:47;28.95;;;8.90;;
43986;SDS011;29650;47.378;8.300;2023-02-15T06:18:20;15.52;;;7.97;;
43986;SDS011;29650;47.378;8.300;2023-02-15T06:20:47;14.20;;;7.35;;
43986;SDS011;29650;47.378;8.300;2023-02-15T06:23:14;14.88;;;7.18;;
43986;SDS011;29650;47.378;8.300;2023-02-15T06:25:42;15.02;;;8.30;;
43986;SDS011;29650;47.378;8.300;2023-02-15T06:28:10;15.23;;;8.10;;
43986;SDS011;29650;47.378;8.300;2023-02-15T06:30:43;17.85;;;8.18;;
43986;SDS011;29650;47.378;8.300;2023-02-15T06:33:10;18.65;;;7.90;;
43986;SDS011;29650;47.378;8.300;2023-02-15T06:35:38;17.27;;;8.80;;
43986;SDS011;29650;47.378;8.300;2023-02-15T06:38:09;16.80;;;8.95;;
43986;SDS011;29650;47.378;8.300;2023-02-15T06:40:36;17.77;;;8.90;;
43986;SDS011;29650;47.378;8.300;2023-02-15T06:43:11;20.20;;;7.75;;
43986;SDS011;29650;47.378;8.300;2023-02-15T06:45:38;15.23;;;8.43;;
43986;SDS011;29650;47.378;8.300;2023-02-15T06:48:05;34.40;;;10.27;;
43986;SDS011;29650;47.378;8.300;2023-02-15T06:50:33;17.13;;;7.75;;
43986;SDS011;29650;47.378;8.300;2023-02-15T06:53:01;15.50;;;7.53;;
43986;SDS011;29650;47.378;8.300;2023-02-15T06:55:29;15.23;;;7.55;;
43986;SDS011;29650;47.378;8.300;2023-02-15T06:57:56;14.70;;;7.95;;
43986;SDS011;29650;47.378;8.300;2023-02-15T07:00:28;19.90;;;7.93;;
43986;SDS011;29650;47.378;8.300;2023-02-15T07:02:55;13.35;;;8.02;;
43986;SDS011;29650;47.378;8.300;2023-02-15T07:05:23;28.50;;;8.43;;
43986;SDS011;29650;47.378;8.300;2023-02-15T07:07:55;15.45;;;7.82;;
43986;SDS011;29650;47.378;8.300;2023-02-15T07:10:24;12.85;;;7.82;;
43986;SDS011;29650;47.378;8.300;2023-02-15T07:12:55;16.20;;;7.85;;
43986;SDS011;29650;47.378;8.300;2023-02-15T07:15:29;16.40;;;6.82;;
43986;SDS011;29650;47.378;8.300;2023-02-15T07:17:56;18.23;;;7.60;;
43986;SDS011;29650;47.378;8.300;2023-02-15T07:20:24;17.83;;;8.30;;
43986;SDS011;29650;47.378;8.300;2023-02-15T07:22:51;14.30;;;7.28;;
43986;SDS011;29650;47.378;8.300;2023-02-15T07:25:30;17.08;;;7.18;;
43986;SDS011;29650;47.378;8.300;2023-02-15T07:27:57;15.57;;;8.43;;
43986;SDS011;29650;47.378;8.300;2023-02-15T07:30:25;14.93;;;7.80;;
43986;SDS011;29650;47.378;8.300;2023-02-15T07:32:55;15.93;;;7.97;;
43986;SDS011;29650;47.378;8.300;2023-02-15T07:35:45;19.63;;;7.93;;
43986;SDS011;29650;47.378;8.300;2023-02-15T07:38:17;26.30;;;8.20;;
43986;SDS011;29650;47.378;8.300;2023-02-15T07:43:20;12.93;;;6.85;;
43986;SDS011;29650;47.378;8.300;2023-02-15T07:46:05;13.05;;;6.93;;
43986;SDS011;29650;47.378;8.300;2023-02-15T07:48:34;12.30;;;7.07;;
43986;SDS011;29650;47.378;8.300;2023-02-15T07:51:11;16.50;;;8.32;;
43986;SDS011;29650;47.378;8.300;2023-02-15T07:53:39;16.80;;;7.90;;
43986;SDS011;29650;47.378;8.300;2023-02-15T07:56:09;15.45;;;8.52;;
43986;SDS011;29650;47.378;8.300;2023-02-15T07:58:37;13.85;;;7.30;;
43986;SDS011;29650;47.378;8.300;2023-02-15T08:01:31;15.45;;;7.68;;
43986;SDS011;29650;47.378;8.300;2023-02-15T08:04:00;14.80;;;7.53;;
43986;SDS011;29650;47.378;8.300;2023-02-15T08:06:27;14.18;;;7.25;;
43986;SDS011;29650;47.378;8.300;2023-02-15T08:08:56;12.65;;;7.32;;
43986;SDS011;29650;47.378;8.300;2023-02-15T08:11:25;12.98;;;7.40;;
43986;SDS011;29650;47.378;8.300;2023-02-15T08:14:06;19.20;;;9.60;;
43986;SDS011;29650;47.378;8.300;2023-02-15T08:16:37;16.10;;;9.07;;
43986;SDS011;29650;47.378;8.300;2023-02-15T08:19:14;13.00;;;8.45;;
43986;SDS011;29650;47.378;8.300;2023-02-15T08:21:44;22.35;;;8.40;;
43986;SDS011;29650;47.378;8.300;2023-02-15T08:26:42;15.43;;;6.53;;
43986;SDS011;29650;47.378;8.300;2023-02-15T08:29:10;16.23;;;8.38;;
43986;SDS011;29650;47.378;8.300;2023-02-15T08:31:52;10.55;;;6.85;;
43986;SDS011;29650;47.378;8.300;2023-02-15T08:36:47;11.98;;;7.60;;
43986;SDS011;29650;47.378;8.300;2023-02-15T08:39:17;13.35;;;7.70;;
43986;SDS011;29650;47.378;8.300;2023-02-15T08:41:45;12.60;;;8.18;;
43986;SDS011;29650;47.378;8.300;2023-02-15T08:44:18;15.60;;;8.32;;
43986;SDS011;29650;47.378;8.300;2023-02-15T08:46:55;11.82;;;7.00;;
43986;SDS011;29650;47.378;8.300;2023-02-15T08:49:27;16.73;;;9.25;;
43986;SDS011;29650;47.378;8.300;2023-02-15T08:51:54;20.55;;;9.40;;
43986;SDS011;29650;47.378;8.300;2023-02-15T08:54:21;16.27;;;8.68;;
43986;SDS011;29650;47.378;8.300;2023-02-15T08:56:52;14.68;;;7.57;;
43986;SDS011;29650;47.378;8.300;2023-02-15T08:59:23;16.45;;;8.50;;
43986;SDS011;29650;47.378;8.300;2023-02-15T09:01:52;17.45;;;9.05;;
43986;SDS011;29650;47.378;8.300;2023-02-15T09:04:20;17.08;;;9.68;;
43986;SDS011;29650;47.378;8.300;2023-02-15T09:06:48;21.08;;;8.75;;
43986;SDS011;29650;47.378;8.300;2023-02-15T09:09:16;15.15;;;8.07;;
43986;SDS011;29650;47.378;8.300;2023-02-15T09:11:45;18.23;;;9.27;;
43986;SDS011;29650;47.378;8.300;2023-02-15T09:14:15;17.08;;;8.68;;
43986;SDS011;29650;47.378;8.300;2023-02-15T09:16:45;15.88;;;7.40;;
43986;SDS011;29650;47.378;8.300;2023-02-15T09:19:15;18.48;;;8.90;;
43986;SDS011;29650;47.378;8.300;2023-02-15T09:21:44;12.77;;;7.80;;
43986;SDS011;29650;47.378;8.300;2023-02-15T09:24:11;16.52;;;8.40;;
43986;SDS011;29650;47.378;8.300;2023-02-15T09:26:40;17.63;;;10.02;;
43986;SDS011;29650;47.378;8.300;2023-02-15T09:29:12;17.63;;;9.30;;
43986;SDS011;29650;47.378;8.300;2023-02-15T09:31:48;20.00;;;8.97;;
43986;SDS011;29650;47.378;8.300;2023-02-15T09:34:16;17.33;;;9.07;;
43986;SDS011;29650;47.378;8.300;2023-02-15T09:36:49;19.45;;;7.82;;
43986;SDS011;29650;47.378;8.300;2023-02-15T09:39:18;12.52;;;7.00;;
43986;SDS011;29650;47.378;8.300;2023-02-15T09:41:59;15.63;;;8.52;;
43986;SDS011;29650;47.378;8.300;2023-02-15T09:44:52;15.43;;;8.15;;
43986;SDS011;29650;47.378;8.300;2023-02-15T09:47:49;17.50;;;8.82;;
43986;SDS011;29650;47.378;8.300;2023-02-15T09:50:30;16.25;;;8.50;;
43986;SDS011;29650;47.378;8.300;2023-02-15T09:53:09;13.68;;;7.25;;
43986;SDS011;29650;47.378;8.300;2023-02-15T09:55:57;19.77;;;10.02;;
43986;SDS011;29650;47.378;8.300;2023-02-15T09:58:34;15.82;;;8.50;;
43986;SDS011;29650;47.378;8.300;2023-02-15T10:01:16;16.35;;;8.80;;
43986;SDS011;29650;47.378;8.300;2023-02-15T10:04:03;16.77;;;8.63;;
43986;SDS011;29650;47.378;8.300;2023-02-15T10:06:48;16.38;;;8.68;;
43986;SDS011;29650;47.378;8.300;2023-02-15T10:09:35;16.92;;;10.32;;
43986;SDS011;29650;47.378;8.300;2023-02-15T10:12:14;13.68;;;8.18;;
43986;SDS011;29650;47.378;8.300;2023-02-15T10:14:56;16.85;;;8.63;;
43986;SDS011;29650;47.378;8.300;2023-02-15T10:17:44;17.15;;;8.90;;
43986;SDS011;29650;47.378;8.300;2023-02-15T10:20:22;18.80;;;9.15;;
43986;SDS011;29650;47.378;8.300;2023-02-15T10:23:00;16.05;;;8.85;;
43986;SDS011;29650;47.378;8.300;2023-02-15T10:25:41;23.52;;;8.77;;
43986;SDS011;29650;47.378;8.300;2023-02-15T10:28:15;18.58;;;8.60;;
43986;SDS011;29650;47.378;8.300;2023-02-15T10:31:06;19.90;;;9.50;;
43986;SDS011;29650;47.378;8.300;2023-02-15T10:34:11;16.65;;;9.32;;
43986;SDS011;29650;47.378;8.300;2023-02-15T10:37:01;15.57;;;8.52;;
43986;SDS011;29650;47.378;8.300;2023-02-15T10:39:49;20.13;;;9.52;;
43986;SDS011;29650;47.378;8.300;2023-02-15T10:42:24;19.45;;;8.88;;
43986;SDS011;29650;47.378;8.300;2023-02-15T10:45:04;20.60;;;10.15;;
43986;SDS011;29650;47.378;8.300;2023-02-15T10:50:42;18.60;;;9.68;;
43986;SDS011;29650;47.378;8.300;2023-02-15T10:53:24;15.88;;;9.05;;
43986;SDS011;29650;47.378;8.300;2023-02-15T10:56:04;18.33;;;9.25;;
43986;SDS011;29650;47.378;8.300;2023-02-15T10:58:42;18.58;;;10.13;;
43986;SDS011;29650;47.378;8.300;2023-02-15T11:01:23;16.45;;;8.75;;
43986;SDS011;29650;47.378;8.300;2023-02-15T11:04:03;19.27;;;9.27;;
43986;SDS011;29650;47.378;8.300;2023-02-15T11:06:43;29.88;;;11.85;;
43986;SDS011;29650;47.378;8.300;2023-02-15T11:09:16;22.85;;;10.57;;
43986;SDS011;29650;47.378;8.300;2023-02-15T11:11:47;17.48;;;9.70;;
43986;SDS011;29650;47.378;8.300;2023-02-15T11:14:17;21.42;;;10.82;;
43986;SDS011;29650;47.378;8.300;2023-02-15T11:16:50;21.67;;;10.27;;
43986;SDS011;29650;47.378;8.300;2023-02-15T11:19:21;22.42;;;11.38;;
43986;SDS011;29650;47.378;8.300;2023-02-15T11:21:53;22.00;;;9.88;;
43986;SDS011;29650;47.378;8.300;2023-02-15T11:24:24;21.13;;;11.57;;
43986;SDS011;29650;47.378;8.300;2023-02-15T11:26:54;28.15;;;11.52;;
43986;SDS011;29650;47.378;8.300;2023-02-15T11:29:26;19.10;;;10.18;;
43986;SDS011;29650;47.378;8.300;2023-02-15T11:32:11;21.25;;;10.93;;
43986;SDS011;29650;47.378;8.300;2023-02-15T11:34:47;21.70;;;10.85;;
43986;SDS011;29650;47.378;8.300;2023-02-15T11:37:19;17.20;;;9.68;;
43986;SDS011;29650;47.378;8.300;2023-02-15T11:39:50;20.15;;;11.07;;
43986;SDS011;29650;47.378;8.300;2023-02-15T11:44:51;21.42;;;11.18;;
43986;SDS011;29650;47.378;8.300;2023-02-15T11:47:25;16.30;;;9.43;;
43986;SDS011;29650;47.378;8.300;2023-02-15T11:49:54;14.30;;;8.95;;
43986;SDS011;29650;47.378;8.300;2023-02-15T11:52:23;17.45;;;9.85;;
43986;SDS011;29650;47.378;8.300;2023-02-15T11:54:51;17.27;;;10.17;;
43986;SDS011;29650;47.378;8.300;2023-02-15T11:57:20;23.83;;;11.83;;
43986;SDS011;29650;47.378;8.300;2023-02-15T11:59:53;22.75;;;12.00;;
43986;SDS011;29650;47.378;8.300;2023-02-15T12:02:26;21.02;;;10.30;;
43986;SDS011;29650;47.378;8.300;2023-02-15T12:04:56;19.90;;;11.00;;
43986;SDS011;29650;47.378;8.300;2023-02-15T12:07:27;23.10;;;11.27;;
43986;SDS011;29650;47.378;8.300;2023-02-15T12:10:00;18.02;;;10.43;;
43986;SDS011;29650;47.378;8.300;2023-02-15T12:12:33;22.90;;;11.60;;
43986;SDS011;29650;47.378;8.300;2023-02-15T12:15:01;20.02;;;11.20;;
43986;SDS011;29650;47.378;8.300;2023-02-15T12:17:29;27.37;;;12.27;;
43986;SDS011;29650;47.378;8.300;2023-02-15T12:20:00;24.55;;;11.90;;
43986;SDS011;29650;47.378;8.300;2023-02-15T12:22:30;19.67;;;10.65;;
43986;SDS011;29650;47.378;8.300;2023-02-15T12:24:59;23.67;;;11.60;;
43986;SDS011;29650;47.378;8.300;2023-02-15T12:27:30;21.88;;;11.82;;
43986;SDS011;29650;47.378;8.300;2023-02-15T12:30:01;20.52;;;11.18;;
43986;SDS011;29650;47.378;8.300;2023-02-15T12:32:33;22.70;;;11.50;;
43986;SDS011;29650;47.378;8.300;2023-02-15T12:35:06;24.48;;;12.68;;
43986;SDS011;29650;47.378;8.300;2023-02-15T12:37:37;20.55;;;10.88;;
43986;SDS011;29650;47.378;8.300;2023-02-15T12:40:18;22.30;;;10.97;;
43986;SDS011;29650;47.378;8.300;2023-02-15T12:42:47;21.35;;;11.70;;
43986;SDS011;29650;47.378;8.300;2023-02-15T12:45:21;17.33;;;9.90;;
43986;SDS011;29650;47.378;8.300;2023-02-15T12:50:36;17.80;;;10.48;;
43986;SDS011;29650;47.378;8.300;2023-02-15T12:53:11;20.73;;;11.35;;
43986;SDS011;29650;47.378;8.300;2023-02-15T12:55:49;21.67;;;12.02;;
43986;SDS011;29650;47.378;8.300;2023-02-15T12:58:18;28.25;;;12.98;;
43986;SDS011;29650;47.378;8.300;2023-02-15T13:00:47;22.08;;;12.00;;
43986;SDS011;29650;47.378;8.300;2023-02-15T13:03:15;26.27;;;12.18;;
43986;SDS011;29650;47.378;8.300;2023-02-15T13:05:44;22.77;;;12.07;;
43986;SDS011;29650;47.378;8.300;2023-02-15T13:08:16;24.80;;;12.93;;
43986;SDS011;29650;47.378;8.300;2023-02-15T13:10:52;23.38;;;12.88;;
43986;SDS011;29650;47.378;8.300;2023-02-15T13:13:21;21.75;;;12.18;;
43986;SDS011;29650;47.378;8.300;2023-02-15T13:15:50;23.48;;;13.05;;
43986;SDS011;29650;47.378;8.300;2023-02-15T13:20:52;25.80;;;12.77;;
43986;SDS011;29650;47.378;8.300;2023-02-15T13:23:24;24.92;;;13.48;;
43986;SDS011;29650;47.378;8.300;2023-02-15T13:25:54;29.45;;;15.20;;
43986;SDS011;29650;47.378;8.300;2023-02-15T13:28:24;28.52;;;12.77;;
43986;SDS011;29650;47.378;8.300;2023-02-15T13:30:57;27.30;;;13.68;;
43986;SDS011;29650;47.378;8.300;2023-02-15T13:33:25;24.23;;;13.65;;
43986;SDS011;29650;47.378;8.300;2023-02-15T13:35:59;23.38;;;13.98;;
43986;SDS011;29650;47.378;8.300;2023-02-15T13:41:27;25.65;;;11.98;;
43986;SDS011;29650;47.378;8.300;2023-02-15T13:44:01;26.63;;;12.27;;
43986;SDS011;29650;47.378;8.300;2023-02-15T13:46:43;24.90;;;13.70;;
43986;SDS011;29650;47.378;8.300;2023-02-15T13:49:21;22.58;;;12.73;;
43986;SDS011;29650;47.378;8.300;2023-02-15T13:52:05;23.08;;;11.55;;
43986;SDS011;29650;47.378;8.300;2023-02-15T13:54:46;25.10;;;11.90;;
43986;SDS011;29650;47.378;8.300;2023-02-15T13:57:43;26.95;;;13.88;;
43986;SDS011;29650;47.378;8.300;2023-02-15T14:00:25;24.17;;;12.68;;
43986;SDS011;29650;47.378;8.300;2023-02-15T14:05:53;24.65;;;13.10;;
43986;SDS011;29650;47.378;8.300;2023-02-15T14:08:41;19.42;;;11.18;;
43986;SDS011;29650;47.378;8.300;2023-02-15T14:11:21;24.13;;;13.05;;
43986;SDS011;29650;47.378;8.300;2023-02-15T14:13:56;26.90;;;13.93;;
43986;SDS011;29650;47.378;8.300;2023-02-15T14:16:54;28.85;;;12.70;;
43986;SDS011;29650;47.378;8.300;2023-02-15T14:19:28;27.42;;;13.38;;
43986;SDS011;29650;47.378;8.300;2023-02-15T14:22:00;23.05;;;12.25;;
43986;SDS011;29650;47.378;8.300;2023-02-15T14:24:34;24.88;;;13.55;;
43986;SDS011;29650;47.378;8.300;2023-02-15T14:27:12;26.95;;;13.05;;
43986;SDS011;29650;47.378;8.300;2023-02-15T14:29:49;21.65;;;13.23;;
43986;SDS011;29650;47.378;8.300;2023-02-15T14:32:21;21.25;;;12.80;;
43986;SDS011;29650;47.378;8.300;2023-02-15T14:34:54;31.25;;;12.43;;
43986;SDS011;29650;47.378;8.300;2023-02-15T14:37:26;25.33;;;12.93;;
43986;SDS011;29650;47.378;8.300;2023-02-15T14:40:03;26.10;;;13.10;;
43986;SDS011;29650;47.378;8.300;2023-02-15T14:42:58;22.27;;;12.15;;
43986;SDS011;29650;47.378;8.300;2023-02-15T14:45:31;25.38;;;12.43;;
43986;SDS011;29650;47.378;8.300;2023-02-15T14:48:09;21.63;;;12.23;;
43986;SDS011;29650;47.378;8.300;2023-02-15T14:50:45;20.95;;;12.25;;
43986;SDS011;29650;47.378;8.300;2023-02-15T14:56:16;18.17;;;10.63;;
43986;SDS011;29650;47.378;8.300;2023-02-15T15:01:42;20.98;;;11.13;;
43986;SDS011;29650;47.378;8.300;2023-02-15T15:04:22;23.42;;;11.80;;
43986;SDS011;29650;47.378;8.300;2023-02-15T15:06:57;19.98;;;10.98;;
43986;SDS011;29650;47.378;8.300;2023-02-15T15:12:13;19.38;;;9.98;;
43986;SDS011;29650;47.378;8.300;2023-02-15T15:14:56;18.55;;;10.25;;
43986;SDS011;29650;47.378;8.300;2023-02-15T15:20:45;20.35;;;10.70;;
43986;SDS011;29650;47.378;8.300;2023-02-15T15:26:20;16.67;;;9.73;;
43986;SDS011;29650;47.378;8.300;2023-02-15T15:28:58;19.90;;;11.07;;
43986;SDS011;29650;47.378;8.300;2023-02-15T15:31:30;22.17;;;10.05;;
43986;SDS011;29650;47.378;8.300;2023-02-15T15:34:20;17.08;;;9.35;;
43986;SDS011;29650;47.378;8.300;2023-02-15T15:37:18;18.40;;;9.68;;
43986;SDS011;29650;47.378;8.300;2023-02-15T15:40:17;16.58;;;10.00;;
43986;SDS011;29650;47.378;8.300;2023-02-15T15:43:03;18.30;;;9.40;;
43986;SDS011;29650;47.378;8.300;2023-02-15T15:45:58;19.50;;;10.27;;
43986;SDS011;29650;47.378;8.300;2023-02-15T15:48:34;15.85;;;8.93;;
43986;SDS011;29650;47.378;8.300;2023-02-15T15:51:05;18.40;;;10.23;;
43986;SDS011;29650;47.378;8.300;2023-02-15T15:53:39;17.75;;;10.73;;
43986;SDS011;29650;47.378;8.300;2023-02-15T15:56:11;17.52;;;10.43;;
43986;SDS011;29650;47.378;8.300;2023-02-15T15:58:42;15.48;;;9.80;;
43986;SDS011;29650;47.378;8.300;2023-02-15T16:01:12;17.17;;;10.38;;
43986;SDS011;29650;47.378;8.300;2023-02-15T16:03:49;18.13;;;11.05;;
43986;SDS011;29650;47.378;8.300;2023-02-15T16:06:27;19.67;;;11.38;;
43986;SDS011;29650;47.378;8.300;2023-02-15T16:08:56;16.58;;;10.15;;
43986;SDS011;29650;47.378;8.300;2023-02-15T16:11:24;19.02;;;11.00;;
43986;SDS011;29650;47.378;8.300;2023-02-15T16:13:55;18.42;;;10.35;;
43986;SDS011;29650;47.378;8.300;2023-02-15T16:16:22;18.20;;;9.68;;